KCKN/CKN METAR and TAF weather

Enter ICAO airport designator
Station Type Date Time Source
KCKN METAR 2019/02/23 22:55 UTC NOAA

KCKN 232255Z AUTO 33005KT 10SM OVC014 M09/M11 A2988 RMK AO2


Station Type Date Time Source
KCKN Decoded METAR 2019/02/23 22:55 UTC NOAA

Crookston Municipal Field, MN, United States (KCKN) 47-51N 096-37W
Feb 23, 2019 - 05:55 PM EST / 2019.02.23 2255 UTC
Wind: from the NNW (330 degrees) at 6 MPH (5 KT):0
Visibility: 10 mile(s):0
Sky conditions: overcast
Temperature: 15 F (-9 C)
Windchill: 6 F (-14 C):1
Dew Point: 12 F (-11 C)
Relative Humidity: 85%
Pressure (altimeter): 29.88 in. Hg (1011 hPa)
ob: KCKN 232255Z AUTO 33005KT 10SM OVC014 M09/M11 A2988 RMK AO2
cycle: 23

Station Type Date Time Source
KCKN TAF UTC NOAA

Error!


Example: see airport list